sensor_id;sensor_type;location;lat;lon;timestamp;P1;durP1;ratioP1;P2;durP2;ratioP2
71462;SDS011;59266;52.608;13.260;2022-10-17T00:00:02;13.38;;;6.20;;
71462;SDS011;59266;52.608;13.260;2022-10-17T00:02:30;15.20;;;6.78;;
71462;SDS011;59266;52.608;13.260;2022-10-17T00:04:56;14.18;;;7.47;;
71462;SDS011;59266;52.608;13.260;2022-10-17T00:07:23;13.95;;;6.95;;
71462;SDS011;59266;52.608;13.260;2022-10-17T00:09:51;13.80;;;7.22;;
71462;SDS011;59266;52.608;13.260;2022-10-17T00:12:17;13.93;;;6.82;;
71462;SDS011;59266;52.608;13.260;2022-10-17T00:14:44;15.45;;;7.95;;
71462;SDS011;59266;52.608;13.260;2022-10-17T00:17:10;14.57;;;7.57;;
71462;SDS011;59266;52.608;13.260;2022-10-17T00:19:37;17.05;;;8.00;;
71462;SDS011;59266;52.608;13.260;2022-10-17T00:22:03;15.23;;;8.23;;
71462;SDS011;59266;52.608;13.260;2022-10-17T00:24:30;16.10;;;8.90;;
71462;SDS011;59266;52.608;13.260;2022-10-17T00:26:56;14.50;;;8.35;;
71462;SDS011;59266;52.608;13.260;2022-10-17T00:29:23;19.25;;;8.52;;
71462;SDS011;59266;52.608;13.260;2022-10-17T00:31:52;18.23;;;9.18;;
71462;SDS011;59266;52.608;13.260;2022-10-17T00:34:19;21.08;;;9.93;;
71462;SDS011;59266;52.608;13.260;2022-10-17T00:36:46;17.20;;;9.07;;
71462;SDS011;59266;52.608;13.260;2022-10-17T00:39:12;18.35;;;9.40;;
71462;SDS011;59266;52.608;13.260;2022-10-17T00:41:39;16.83;;;9.50;;
71462;SDS011;59266;52.608;13.260;2022-10-17T00:44:06;17.42;;;9.32;;
71462;SDS011;59266;52.608;13.260;2022-10-17T00:46:53;17.77;;;9.63;;
71462;SDS011;59266;52.608;13.260;2022-10-17T00:49:20;17.25;;;9.35;;
71462;SDS011;59266;52.608;13.260;2022-10-17T00:51:50;21.88;;;9.57;;
71462;SDS011;59266;52.608;13.260;2022-10-17T00:54:20;20.13;;;9.88;;
71462;SDS011;59266;52.608;13.260;2022-10-17T00:56:49;16.77;;;9.27;;
71462;SDS011;59266;52.608;13.260;2022-10-17T00:59:16;16.85;;;9.48;;
71462;SDS011;59266;52.608;13.260;2022-10-17T01:01:47;23.38;;;11.35;;
71462;SDS011;59266;52.608;13.260;2022-10-17T01:04:27;18.85;;;9.32;;
71462;SDS011;59266;52.608;13.260;2022-10-17T01:06:53;20.55;;;9.40;;
71462;SDS011;59266;52.608;13.260;2022-10-17T01:09:20;18.65;;;9.13;;
71462;SDS011;59266;52.608;13.260;2022-10-17T01:12:06;22.40;;;9.27;;
71462;SDS011;59266;52.608;13.260;2022-10-17T01:14:48;18.70;;;9.30;;
71462;SDS011;59266;52.608;13.260;2022-10-17T01:17:33;29.02;;;10.25;;
71462;SDS011;59266;52.608;13.260;2022-10-17T01:20:22;21.67;;;10.23;;
71462;SDS011;59266;52.608;13.260;2022-10-17T01:23:27;21.42;;;10.07;;
71462;SDS011;59266;52.608;13.260;2022-10-17T01:26:12;17.85;;;10.77;;
71462;SDS011;59266;52.608;13.260;2022-10-17T01:29:04;19.13;;;9.23;;
71462;SDS011;59266;52.608;13.260;2022-10-17T01:31:37;21.35;;;9.77;;
71462;SDS011;59266;52.608;13.260;2022-10-17T01:37:03;22.00;;;9.75;;
71462;SDS011;59266;52.608;13.260;2022-10-17T01:39:53;19.95;;;9.52;;
71462;SDS011;59266;52.608;13.260;2022-10-17T01:45:13;18.13;;;9.82;;
71462;SDS011;59266;52.608;13.260;2022-10-17T01:47:46;21.48;;;10.05;;
71462;SDS011;59266;52.608;13.260;2022-10-17T01:50:22;19.77;;;10.38;;
71462;SDS011;59266;52.608;13.260;2022-10-17T01:52:58;24.17;;;9.43;;
71462;SDS011;59266;52.608;13.260;2022-10-17T01:55:32;23.23;;;10.38;;
71462;SDS011;59266;52.608;13.260;2022-10-17T01:58:05;18.55;;;9.98;;
71462;SDS011;59266;52.608;13.260;2022-10-17T02:00:35;24.30;;;10.45;;
71462;SDS011;59266;52.608;13.260;2022-10-17T02:03:04;21.45;;;9.27;;
71462;SDS011;59266;52.608;13.260;2022-10-17T02:05:36;20.95;;;10.20;;
71462;SDS011;59266;52.608;13.260;2022-10-17T02:08:05;19.92;;;10.10;;
71462;SDS011;59266;52.608;13.260;2022-10-17T02:10:38;23.80;;;9.32;;
71462;SDS011;59266;52.608;13.260;2022-10-17T02:13:34;19.77;;;9.45;;
71462;SDS011;59266;52.608;13.260;2022-10-17T02:16:21;16.73;;;10.20;;
71462;SDS011;59266;52.608;13.260;2022-10-17T02:19:16;20.23;;;9.38;;
71462;SDS011;59266;52.608;13.260;2022-10-17T02:24:56;19.50;;;8.88;;
71462;SDS011;59266;52.608;13.260;2022-10-17T02:27:51;29.90;;;9.63;;
71462;SDS011;59266;52.608;13.260;2022-10-17T02:32:59;15.75;;;8.70;;
71462;SDS011;59266;52.608;13.260;2022-10-17T02:35:39;15.55;;;8.43;;
71462;SDS011;59266;52.608;13.260;2022-10-17T02:38:10;17.00;;;8.65;;
71462;SDS011;59266;52.608;13.260;2022-10-17T02:40:37;16.40;;;8.35;;
71462;SDS011;59266;52.608;13.260;2022-10-17T02:43:05;15.85;;;7.88;;
71462;SDS011;59266;52.608;13.260;2022-10-17T02:45:32;18.27;;;8.65;;
71462;SDS011;59266;52.608;13.260;2022-10-17T02:48:13;19.40;;;8.65;;
71462;SDS011;59266;52.608;13.260;2022-10-17T02:50:50;19.98;;;7.78;;
71462;SDS011;59266;52.608;13.260;2022-10-17T02:53:29;16.45;;;8.15;;
71462;SDS011;59266;52.608;13.260;2022-10-17T02:56:04;20.27;;;7.80;;
71462;SDS011;59266;52.608;13.260;2022-10-17T02:58:42;16.75;;;7.97;;
71462;SDS011;59266;52.608;13.260;2022-10-17T03:01:12;14.32;;;7.60;;
71462;SDS011;59266;52.608;13.260;2022-10-17T03:03:39;15.13;;;7.65;;
71462;SDS011;59266;52.608;13.260;2022-10-17T03:06:06;11.77;;;7.00;;
71462;SDS011;59266;52.608;13.260;2022-10-17T03:08:32;17.98;;;7.80;;
71462;SDS011;59266;52.608;13.260;2022-10-17T03:10:59;12.88;;;7.40;;
71462;SDS011;59266;52.608;13.260;2022-10-17T03:13:25;12.88;;;7.57;;
71462;SDS011;59266;52.608;13.260;2022-10-17T03:15:52;16.60;;;7.50;;
71462;SDS011;59266;52.608;13.260;2022-10-17T03:18:18;14.35;;;7.20;;
71462;SDS011;59266;52.608;13.260;2022-10-17T03:20:45;13.38;;;7.15;;
71462;SDS011;59266;52.608;13.260;2022-10-17T03:23:11;13.77;;;7.80;;
71462;SDS011;59266;52.608;13.260;2022-10-17T03:25:38;15.23;;;7.60;;
71462;SDS011;59266;52.608;13.260;2022-10-17T03:28:05;17.98;;;7.97;;
71462;SDS011;59266;52.608;13.260;2022-10-17T03:30:32;18.30;;;8.43;;
71462;SDS011;59266;52.608;13.260;2022-10-17T03:32:59;14.80;;;7.35;;
71462;SDS011;59266;52.608;13.260;2022-10-17T03:35:26;18.00;;;7.75;;
71462;SDS011;59266;52.608;13.260;2022-10-17T03:37:54;16.88;;;7.78;;
71462;SDS011;59266;52.608;13.260;2022-10-17T03:40:21;15.63;;;7.07;;
71462;SDS011;59266;52.608;13.260;2022-10-17T03:42:47;20.63;;;7.07;;
71462;SDS011;59266;52.608;13.260;2022-10-17T03:45:14;19.45;;;7.20;;
71462;SDS011;59266;52.608;13.260;2022-10-17T03:47:41;14.40;;;7.68;;
71462;SDS011;59266;52.608;13.260;2022-10-17T03:50:07;18.73;;;7.65;;
71462;SDS011;59266;52.608;13.260;2022-10-17T03:52:34;14.82;;;7.60;;
71462;SDS011;59266;52.608;13.260;2022-10-17T03:55:00;19.00;;;7.88;;
71462;SDS011;59266;52.608;13.260;2022-10-17T03:57:27;15.60;;;8.18;;
71462;SDS011;59266;52.608;13.260;2022-10-17T03:59:54;15.10;;;6.70;;
71462;SDS011;59266;52.608;13.260;2022-10-17T04:02:20;15.30;;;7.30;;
71462;SDS011;59266;52.608;13.260;2022-10-17T04:04:48;14.80;;;7.75;;
71462;SDS011;59266;52.608;13.260;2022-10-17T04:07:14;14.95;;;7.55;;
71462;SDS011;59266;52.608;13.260;2022-10-17T04:09:41;16.40;;;7.80;;
71462;SDS011;59266;52.608;13.260;2022-10-17T04:12:07;16.60;;;9.18;;
71462;SDS011;59266;52.608;13.260;2022-10-17T04:14:35;25.55;;;8.52;;
71462;SDS011;59266;52.608;13.260;2022-10-17T04:17:02;17.92;;;7.97;;
71462;SDS011;59266;52.608;13.260;2022-10-17T04:19:29;15.20;;;7.28;;
71462;SDS011;59266;52.608;13.260;2022-10-17T04:21:55;14.15;;;7.72;;
71462;SDS011;59266;52.608;13.260;2022-10-17T04:24:22;17.98;;;8.05;;
71462;SDS011;59266;52.608;13.260;2022-10-17T04:26:50;14.85;;;8.00;;
71462;SDS011;59266;52.608;13.260;2022-10-17T04:29:17;14.82;;;7.10;;
71462;SDS011;59266;52.608;13.260;2022-10-17T04:31:44;13.85;;;7.90;;
71462;SDS011;59266;52.608;13.260;2022-10-17T04:34:10;18.00;;;8.55;;
71462;SDS011;59266;52.608;13.260;2022-10-17T04:36:39;15.35;;;7.88;;
71462;SDS011;59266;52.608;13.260;2022-10-17T04:39:05;15.05;;;6.93;;
71462;SDS011;59266;52.608;13.260;2022-10-17T04:41:32;16.63;;;8.48;;
71462;SDS011;59266;52.608;13.260;2022-10-17T04:43:59;16.38;;;7.80;;
71462;SDS011;59266;52.608;13.260;2022-10-17T04:46:25;17.58;;;8.60;;
71462;SDS011;59266;52.608;13.260;2022-10-17T04:48:52;19.15;;;7.90;;
71462;SDS011;59266;52.608;13.260;2022-10-17T04:51:19;18.88;;;8.75;;
71462;SDS011;59266;52.608;13.260;2022-10-17T04:53:50;18.25;;;9.38;;
71462;SDS011;59266;52.608;13.260;2022-10-17T04:56:18;21.25;;;9.68;;
71462;SDS011;59266;52.608;13.260;2022-10-17T04:58:46;24.85;;;8.68;;
71462;SDS011;59266;52.608;13.260;2022-10-17T05:01:14;17.88;;;8.73;;
71462;SDS011;59266;52.608;13.260;2022-10-17T05:03:42;22.85;;;9.68;;
71462;SDS011;59266;52.608;13.260;2022-10-17T05:06:10;23.33;;;9.60;;
71462;SDS011;59266;52.608;13.260;2022-10-17T05:08:38;27.75;;;9.75;;
71462;SDS011;59266;52.608;13.260;2022-10-17T05:11:05;21.95;;;8.82;;
71462;SDS011;59266;52.608;13.260;2022-10-17T05:13:41;21.40;;;8.98;;
71462;SDS011;59266;52.608;13.260;2022-10-17T05:16:07;20.13;;;9.43;;
71462;SDS011;59266;52.608;13.260;2022-10-17T05:18:34;22.10;;;9.73;;
71462;SDS011;59266;52.608;13.260;2022-10-17T05:21:02;18.75;;;9.55;;
71462;SDS011;59266;52.608;13.260;2022-10-17T05:23:29;20.55;;;10.13;;
71462;SDS011;59266;52.608;13.260;2022-10-17T05:25:55;19.98;;;9.52;;
71462;SDS011;59266;52.608;13.260;2022-10-17T05:28:22;26.73;;;9.93;;
71462;SDS011;59266;52.608;13.260;2022-10-17T05:30:49;21.02;;;9.77;;
71462;SDS011;59266;52.608;13.260;2022-10-17T05:33:15;21.08;;;10.30;;
71462;SDS011;59266;52.608;13.260;2022-10-17T05:35:42;27.58;;;11.20;;
71462;SDS011;59266;52.608;13.260;2022-10-17T05:38:08;18.50;;;10.38;;
71462;SDS011;59266;52.608;13.260;2022-10-17T05:40:35;19.58;;;10.77;;
71462;SDS011;59266;52.608;13.260;2022-10-17T05:43:03;19.25;;;9.75;;
71462;SDS011;59266;52.608;13.260;2022-10-17T05:45:30;18.85;;;10.25;;
71462;SDS011;59266;52.608;13.260;2022-10-17T05:47:56;23.00;;;9.80;;
71462;SDS011;59266;52.608;13.260;2022-10-17T05:50:23;18.77;;;10.40;;
71462;SDS011;59266;52.608;13.260;2022-10-17T05:52:53;21.20;;;10.60;;
71462;SDS011;59266;52.608;13.260;2022-10-17T05:55:20;20.00;;;9.73;;
71462;SDS011;59266;52.608;13.260;2022-10-17T05:57:47;19.35;;;11.30;;
71462;SDS011;59266;52.608;13.260;2022-10-17T06:00:14;17.60;;;10.80;;
71462;SDS011;59266;52.608;13.260;2022-10-17T06:02:41;18.90;;;10.20;;
71462;SDS011;59266;52.608;13.260;2022-10-17T06:05:11;18.63;;;9.35;;
71462;SDS011;59266;52.608;13.260;2022-10-17T06:07:38;16.88;;;9.98;;
71462;SDS011;59266;52.608;13.260;2022-10-17T06:10:05;19.02;;;9.70;;
71462;SDS011;59266;52.608;13.260;2022-10-17T06:12:32;19.35;;;8.88;;
71462;SDS011;59266;52.608;13.260;2022-10-17T06:14:59;15.27;;;8.55;;
71462;SDS011;59266;52.608;13.260;2022-10-17T06:17:25;19.95;;;9.73;;
71462;SDS011;59266;52.608;13.260;2022-10-17T06:19:53;14.60;;;8.18;;
71462;SDS011;59266;52.608;13.260;2022-10-17T06:22:22;16.17;;;8.82;;
71462;SDS011;59266;52.608;13.260;2022-10-17T06:24:48;16.42;;;8.40;;
71462;SDS011;59266;52.608;13.260;2022-10-17T06:27:15;13.38;;;8.05;;
71462;SDS011;59266;52.608;13.260;2022-10-17T06:29:41;14.30;;;7.63;;
71462;SDS011;59266;52.608;13.260;2022-10-17T06:32:07;14.60;;;7.35;;
71462;SDS011;59266;52.608;13.260;2022-10-17T06:34:40;19.38;;;7.35;;
71462;SDS011;59266;52.608;13.260;2022-10-17T06:37:06;13.18;;;7.25;;
71462;SDS011;59266;52.608;13.260;2022-10-17T06:39:33;12.00;;;6.25;;
71462;SDS011;59266;52.608;13.260;2022-10-17T06:42:01;10.40;;;6.18;;
71462;SDS011;59266;52.608;13.260;2022-10-17T06:44:28;11.20;;;6.15;;
71462;SDS011;59266;52.608;13.260;2022-10-17T06:46:57;10.68;;;6.00;;
71462;SDS011;59266;52.608;13.260;2022-10-17T06:49:24;14.40;;;5.82;;
71462;SDS011;59266;52.608;13.260;2022-10-17T06:51:50;11.30;;;5.82;;
71462;SDS011;59266;52.608;13.260;2022-10-17T06:54:17;10.73;;;5.20;;
71462;SDS011;59266;52.608;13.260;2022-10-17T06:56:43;9.55;;;5.10;;
71462;SDS011;59266;52.608;13.260;2022-10-17T06:59:10;8.77;;;4.60;;
71462;SDS011;59266;52.608;13.260;2022-10-17T07:01:36;9.02;;;4.88;;
71462;SDS011;59266;52.608;13.260;2022-10-17T07:04:05;7.93;;;4.00;;
71462;SDS011;59266;52.608;13.260;2022-10-17T07:06:32;11.50;;;4.65;;
71462;SDS011;59266;52.608;13.260;2022-10-17T07:08:59;7.80;;;4.00;;
71462;SDS011;59266;52.608;13.260;2022-10-17T07:11:27;7.53;;;3.63;;
71462;SDS011;59266;52.608;13.260;2022-10-17T07:13:54;8.07;;;3.55;;
71462;SDS011;59266;52.608;13.260;2022-10-17T07:16:20;6.72;;;3.47;;
71462;SDS011;59266;52.608;13.260;2022-10-17T07:18:47;8.13;;;3.50;;
71462;SDS011;59266;52.608;13.260;2022-10-17T07:21:15;9.80;;;3.53;;
71462;SDS011;59266;52.608;13.260;2022-10-17T07:23:41;7.97;;;3.65;;
71462;SDS011;59266;52.608;13.260;2022-10-17T07:26:09;19.05;;;5.25;;
71462;SDS011;59266;52.608;13.260;2022-10-17T07:28:38;9.40;;;3.60;;
71462;SDS011;59266;52.608;13.260;2022-10-17T07:31:07;7.35;;;3.20;;
71462;SDS011;59266;52.608;13.260;2022-10-17T07:33:34;12.35;;;3.25;;
71462;SDS011;59266;52.608;13.260;2022-10-17T07:36:02;8.82;;;3.20;;
71462;SDS011;59266;52.608;13.260;2022-10-17T07:38:30;6.80;;;2.42;;
71462;SDS011;59266;52.608;13.260;2022-10-17T07:40:57;9.45;;;3.38;;
71462;SDS011;59266;52.608;13.260;2022-10-17T07:43:25;6.50;;;3.00;;
71462;SDS011;59266;52.608;13.260;2022-10-17T07:45:52;7.30;;;3.13;;
71462;SDS011;59266;52.608;13.260;2022-10-17T07:48:19;7.85;;;3.03;;
71462;SDS011;59266;52.608;13.260;2022-10-17T07:50:46;9.38;;;3.10;;
71462;SDS011;59266;52.608;13.260;2022-10-17T07:53:13;6.60;;;3.05;;
71462;SDS011;59266;52.608;13.260;2022-10-17T07:55:40;7.20;;;2.90;;
71462;SDS011;59266;52.608;13.260;2022-10-17T07:58:07;8.52;;;2.95;;
71462;SDS011;59266;52.608;13.260;2022-10-17T08:00:34;7.35;;;2.90;;
71462;SDS011;59266;52.608;13.260;2022-10-17T08:03:04;5.70;;;2.83;;
71462;SDS011;59266;52.608;13.260;2022-10-17T08:05:32;8.15;;;3.03;;
71462;SDS011;59266;52.608;13.260;2022-10-17T08:07:59;5.90;;;2.67;;
71462;SDS011;59266;52.608;13.260;2022-10-17T08:10:26;7.05;;;2.80;;
71462;SDS011;59266;52.608;13.260;2022-10-17T08:12:55;5.80;;;2.80;;
71462;SDS011;59266;52.608;13.260;2022-10-17T08:15:25;10.82;;;2.60;;
71462;SDS011;59266;52.608;13.260;2022-10-17T08:17:57;8.23;;;2.10;;
71462;SDS011;59266;52.608;13.260;2022-10-17T08:20:24;8.15;;;2.70;;
71462;SDS011;59266;52.608;13.260;2022-10-17T08:22:51;8.63;;;2.70;;
71462;SDS011;59266;52.608;13.260;2022-10-17T08:25:19;10.73;;;3.05;;
71462;SDS011;59266;52.608;13.260;2022-10-17T08:27:46;7.10;;;2.38;;
71462;SDS011;59266;52.608;13.260;2022-10-17T08:30:12;5.90;;;2.80;;
71462;SDS011;59266;52.608;13.260;2022-10-17T08:32:39;7.68;;;2.67;;
71462;SDS011;59266;52.608;13.260;2022-10-17T08:35:05;6.35;;;2.50;;
71462;SDS011;59266;52.608;13.260;2022-10-17T08:37:32;7.15;;;2.63;;
71462;SDS011;59266;52.608;13.260;2022-10-17T08:39:59;7.90;;;2.65;;
71462;SDS011;59266;52.608;13.260;2022-10-17T08:42:30;6.93;;;2.85;;
71462;SDS011;59266;52.608;13.260;2022-10-17T08:48:04;6.40;;;2.90;;
71462;SDS011;59266;52.608;13.260;2022-10-17T08:50:37;7.40;;;3.03;;
71462;SDS011;59266;52.608;13.260;2022-10-17T08:53:20;8.65;;;2.90;;
71462;SDS011;59266;52.608;13.260;2022-10-17T08:58:19;5.85;;;2.70;;
71462;SDS011;59266;52.608;13.260;2022-10-17T09:07:08;6.85;;;2.70;;
71462;SDS011;59266;52.608;13.260;2022-10-17T09:13:04;6.93;;;2.53;;
71462;SDS011;59266;52.608;13.260;2022-10-17T09:16:10;6.68;;;2.63;;
71462;SDS011;59266;52.608;13.260;2022-10-17T09:19:04;9.05;;;2.80;;
71462;SDS011;59266;52.608;13.260;2022-10-17T09:29:54;8.95;;;2.88;;
71462;SDS011;59266;52.608;13.260;2022-10-17T09:32:57;9.05;;;2.72;;
71462;SDS011;59266;52.608;13.260;2022-10-17T09:35:24;6.80;;;2.67;;
71462;SDS011;59266;52.608;13.260;2022-10-17T09:37:53;9.77;;;2.83;;
71462;SDS011;59266;52.608;13.260;2022-10-17T09:40:21;8.40;;;2.70;;
71462;SDS011;59266;52.608;13.260;2022-10-17T09:42:51;8.15;;;2.70;;
71462;SDS011;59266;52.608;13.260;2022-10-17T09:45:19;7.68;;;2.45;;
71462;SDS011;59266;52.608;13.260;2022-10-17T09:48:09;6.05;;;2.55;;
71462;SDS011;59266;52.608;13.260;2022-10-17T09:50:44;8.80;;;2.60;;
71462;SDS011;59266;52.608;13.260;2022-10-17T09:53:33;6.03;;;2.70;;
71462;SDS011;59266;52.608;13.260;2022-10-17T09:56:04;6.32;;;2.25;;
71462;SDS011;59266;52.608;13.260;2022-10-17T10:06:39;6.15;;;2.95;;
71462;SDS011;59266;52.608;13.260;2022-10-17T10:09:19;8.57;;;2.97;;
71462;SDS011;59266;52.608;13.260;2022-10-17T10:11:49;21.60;;;3.97;;
71462;SDS011;59266;52.608;13.260;2022-10-17T10:16:49;7.15;;;2.80;;
71462;SDS011;59266;52.608;13.260;2022-10-17T10:19:28;11.70;;;3.03;;
71462;SDS011;59266;52.608;13.260;2022-10-17T10:22:00;10.75;;;2.78;;
71462;SDS011;59266;52.608;13.260;2022-10-17T10:24:29;5.63;;;2.67;;
71462;SDS011;59266;52.608;13.260;2022-10-17T10:26:57;6.53;;;2.35;;
71462;SDS011;59266;52.608;13.260;2022-10-17T10:29:34;14.50;;;2.95;;
71462;SDS011;59266;52.608;13.260;2022-10-17T10:32:11;8.10;;;2.47;;
71462;SDS011;59266;52.608;13.260;2022-10-17T10:34:47;11.60;;;2.67;;
71462;SDS011;59266;52.608;13.260;2022-10-17T10:39:57;14.00;;;3.70;;
71462;SDS011;59266;52.608;13.260;2022-10-17T10:42:27;11.68;;;2.90;;
71462;SDS011;59266;52.608;13.260;2022-10-17T10:45:21;17.48;;;3.58;;
71462;SDS011;59266;52.608;13.260;2022-10-17T10:48:18;10.52;;;2.70;;
71462;SDS011;59266;52.608;13.260;2022-10-17T10:50:51;7.03;;;2.40;;
71462;SDS011;59266;52.608;13.260;2022-10-17T10:56:03;7.03;;;2.40;;
71462;SDS011;59266;52.608;13.260;2022-10-17T10:58:48;6.32;;;2.60;;
71462;SDS011;59266;52.608;13.260;2022-10-17T11:01:38;13.90;;;3.38;;
71462;SDS011;59266;52.608;13.260;2022-10-17T11:04:16;11.23;;;2.95;;
71462;SDS011;59266;52.608;13.260;2022-10-17T11:06:48;5.75;;;2.50;;
71462;SDS011;59266;52.608;13.260;2022-10-17T11:09:32;7.20;;;2.47;;
71462;SDS011;59266;52.608;13.260;2022-10-17T11:12:17;6.97;;;2.15;;
71462;SDS011;59266;52.608;13.260;2022-10-17T11:14:56;7.95;;;2.65;;
71462;SDS011;59266;52.608;13.260;2022-10-17T11:17:39;9.98;;;2.80;;
71462;SDS011;59266;52.608;13.260;2022-10-17T11:20:13;10.30;;;2.70;;
71462;SDS011;59266;52.608;13.260;2022-10-17T11:22:48;6.97;;;2.30;;
71462;SDS011;59266;52.608;13.260;2022-10-17T11:25:38;6.55;;;2.50;;
71462;SDS011;59266;52.608;13.260;2022-10-17T11:28:12;6.72;;;2.58;;
71462;SDS011;59266;52.608;13.260;2022-10-17T11:30:43;7.43;;;2.20;;
71462;SDS011;59266;52.608;13.260;2022-10-17T11:33:14;10.07;;;2.60;;
71462;SDS011;59266;52.608;13.260;2022-10-17T11:35:49;11.70;;;2.63;;
71462;SDS011;59266;52.608;13.260;2022-10-17T11:38:28;7.07;;;2.33;;
71462;SDS011;59266;52.608;13.260;2022-10-17T11:41:12;6.78;;;2.42;;
71462;SDS011;59266;52.608;13.260;2022-10-17T11:43:45;11.90;;;2.30;;
71462;SDS011;59266;52.608;13.260;2022-10-17T11:46:26;8.10;;;2.50;;
71462;SDS011;59266;52.608;13.260;2022-10-17T11:49:03;13.02;;;2.85;;
71462;SDS011;59266;52.608;13.260;2022-10-17T11:51:45;14.82;;;3.35;;
71462;SDS011;59266;52.608;13.260;2022-10-17T12:08:31;4.68;;;2.15;;
71462;SDS011;59266;52.608;13.260;2022-10-17T12:11:08;6.55;;;2.50;;
71462;SDS011;59266;52.608;13.260;2022-10-17T12:13:51;7.47;;;2.28;;
71462;SDS011;59266;52.608;13.260;2022-10-17T12:18:46;7.68;;;2.72;;
71462;SDS011;59266;52.608;13.260;2022-10-17T12:21:15;7.43;;;2.45;;
71462;SDS011;59266;52.608;13.260;2022-10-17T12:23:49;6.82;;;2.15;;
71462;SDS011;59266;52.608;13.260;2022-10-17T12:26:24;8.45;;;2.40;;
71462;SDS011;59266;52.608;13.260;2022-10-17T12:28:52;6.38;;;2.13;;
71462;SDS011;59266;52.608;13.260;2022-10-17T12:31:23;7.03;;;2.50;;
71462;SDS011;59266;52.608;13.260;2022-10-17T12:33:59;5.45;;;2.33;;
71462;SDS011;59266;52.608;13.260;2022-10-17T12:46:54;6.10;;;2.30;;
71462;SDS011;59266;52.608;13.260;2022-10-17T12:49:50;5.72;;;2.30;;
71462;SDS011;59266;52.608;13.260;2022-10-17T12:52:25;7.13;;;2.20;;
71462;SDS011;59266;52.608;13.260;2022-10-17T12:57:43;8.90;;;2.45;;
71462;SDS011;59266;52.608;13.260;2022-10-17T13:00:20;7.40;;;2.65;;
71462;SDS011;59266;52.608;13.260;2022-10-17T13:02:51;9.10;;;2.53;;
71462;SDS011;59266;52.608;13.260;2022-10-17T13:05:30;8.80;;;2.20;;
71462;SDS011;59266;52.608;13.260;2022-10-17T13:08:00;6.10;;;2.40;;
71462;SDS011;59266;52.608;13.260;2022-10-17T13:10:31;5.82;;;2.40;;
71462;SDS011;59266;52.608;13.260;2022-10-17T13:13:14;8.38;;;2.20;;
71462;SDS011;59266;52.608;13.260;2022-10-17T13:15:47;8.27;;;2.50;;
71462;SDS011;59266;52.608;13.260;2022-10-17T13:18:25;6.35;;;2.38;;
71462;SDS011;59266;52.608;13.260;2022-10-17T13:20:58;6.95;;;2.28;;
71462;SDS011;59266;52.608;13.260;2022-10-17T13:23:31;7.68;;;2.15;;
71462;SDS011;59266;52.608;13.260;2022-10-17T13:26:03;9.68;;;2.10;;
71462;SDS011;59266;52.608;13.260;2022-10-17T13:31:34;8.65;;;2.50;;
71462;SDS011;59266;52.608;13.260;2022-10-17T13:34:03;7.25;;;2.10;;
71462;SDS011;59266;52.608;13.260;2022-10-17T13:36:32;7.30;;;2.30;;
71462;SDS011;59266;52.608;13.260;2022-10-17T13:39:04;7.55;;;2.35;;
71462;SDS011;59266;52.608;13.260;2022-10-17T13:41:38;5.97;;;2.30;;
71462;SDS011;59266;52.608;13.260;2022-10-17T13:44:10;5.20;;;2.05;;
71462;SDS011;59266;52.608;13.260;2022-10-17T13:46:40;6.05;;;2.20;;
71462;SDS011;59266;52.608;13.260;2022-10-17T13:49:24;9.50;;;2.58;;
71462;SDS011;59266;52.608;13.260;2022-10-17T13:51:59;6.10;;;2.22;;
71462;SDS011;59266;52.608;13.260;2022-10-17T13:56:58;7.90;;;2.42;;
71462;SDS011;59266;52.608;13.260;2022-10-17T13:59:33;6.25;;;2.13;;
71462;SDS011;59266;52.608;13.260;2022-10-17T14:02:04;6.47;;;2.38;;
71462;SDS011;59266;52.608;13.260;2022-10-17T14:04:37;6.32;;;2.10;;
71462;SDS011;59266;52.608;13.260;2022-10-17T14:07:25;6.78;;;2.40;;
71462;SDS011;59266;52.608;13.260;2022-10-17T14:10:18;7.07;;;2.22;;
71462;SDS011;59266;52.608;13.260;2022-10-17T14:12:48;8.85;;;2.30;;
71462;SDS011;59266;52.608;13.260;2022-10-17T14:15:16;7.60;;;2.40;;
71462;SDS011;59266;52.608;13.260;2022-10-17T14:17:44;9.80;;;2.42;;
71462;SDS011;59266;52.608;13.260;2022-10-17T14:20:18;6.43;;;2.45;;
71462;SDS011;59266;52.608;13.260;2022-10-17T14:23:24;6.82;;;2.45;;
71462;SDS011;59266;52.608;13.260;2022-10-17T14:26:10;8.77;;;2.30;;
71462;SDS011;59266;52.608;13.260;2022-10-17T14:28:37;7.55;;;2.42;;
71462;SDS011;59266;52.608;13.260;2022-10-17T14:31:09;7.22;;;2.38;;
71462;SDS011;59266;52.608;13.260;2022-10-17T14:33:42;6.90;;;2.22;;
71462;SDS011;59266;52.608;13.260;2022-10-17T14:38:46;5.75;;;2.47;;
71462;SDS011;59266;52.608;13.260;2022-10-17T14:41:25;6.75;;;2.42;;
71462;SDS011;59266;52.608;13.260;2022-10-17T14:44:14;6.55;;;2.47;;
71462;SDS011;59266;52.608;13.260;2022-10-17T14:49:20;7.25;;;2.13;;
71462;SDS011;59266;52.608;13.260;2022-10-17T14:54:47;7.07;;;2.03;;
71462;SDS011;59266;52.608;13.260;2022-10-17T14:57:16;7.90;;;2.38;;
71462;SDS011;59266;52.608;13.260;2022-10-17T14:59:47;10.82;;;2.10;;
71462;SDS011;59266;52.608;13.260;2022-10-17T15:02:22;9.77;;;2.35;;
71462;SDS011;59266;52.608;13.260;2022-10-17T15:04:49;7.03;;;2.33;;
71462;SDS011;59266;52.608;13.260;2022-10-17T15:07:16;7.28;;;2.60;;
71462;SDS011;59266;52.608;13.260;2022-10-17T15:09:43;6.57;;;1.98;;
71462;SDS011;59266;52.608;13.260;2022-10-17T15:12:13;9.30;;;2.20;;
71462;SDS011;59266;52.608;13.260;2022-10-17T15:14:41;12.88;;;2.45;;
71462;SDS011;59266;52.608;13.260;2022-10-17T15:17:11;7.10;;;2.20;;
71462;SDS011;59266;52.608;13.260;2022-10-17T15:19:42;6.85;;;2.38;;
71462;SDS011;59266;52.608;13.260;2022-10-17T15:22:09;7.47;;;2.40;;
71462;SDS011;59266;52.608;13.260;2022-10-17T15:24:36;7.97;;;2.15;;
71462;SDS011;59266;52.608;13.260;2022-10-17T15:27:02;8.82;;;2.28;;
71462;SDS011;59266;52.608;13.260;2022-10-17T15:29:37;7.15;;;2.30;;
71462;SDS011;59266;52.608;13.260;2022-10-17T15:32:04;5.75;;;2.22;;
71462;SDS011;59266;52.608;13.260;2022-10-17T15:34:31;8.05;;;2.20;;
71462;SDS011;59266;52.608;13.260;2022-10-17T15:36:58;5.70;;;2.17;;
71462;SDS011;59266;52.608;13.260;2022-10-17T15:39:24;10.98;;;2.40;;
71462;SDS011;59266;52.608;13.260;2022-10-17T15:41:51;10.70;;;2.58;;
71462;SDS011;59266;52.608;13.260;2022-10-17T15:44:17;8.98;;;2.75;;
71462;SDS011;59266;52.608;13.260;2022-10-17T15:46:43;5.20;;;2.20;;
71462;SDS011;59266;52.608;13.260;2022-10-17T15:49:11;10.48;;;2.70;;
71462;SDS011;59266;52.608;13.260;2022-10-17T15:51:39;11.32;;;2.47;;
71462;SDS011;59266;52.608;13.260;2022-10-17T15:54:06;7.15;;;2.38;;
71462;SDS011;59266;52.608;13.260;2022-10-17T15:56:33;10.10;;;2.53;;
71462;SDS011;59266;52.608;13.260;2022-10-17T15:59:13;7.82;;;2.58;;
71462;SDS011;59266;52.608;13.260;2022-10-17T16:04:13;21.35;;;2.88;;
71462;SDS011;59266;52.608;13.260;2022-10-17T16:06:41;6.95;;;2.28;;
71462;SDS011;59266;52.608;13.260;2022-10-17T16:09:07;10.30;;;2.60;;
71462;SDS011;59266;52.608;13.260;2022-10-17T16:11:35;7.30;;;2.70;;
71462;SDS011;59266;52.608;13.260;2022-10-17T16:14:05;6.97;;;2.40;;
71462;SDS011;59266;52.608;13.260;2022-10-17T16:16:34;7.82;;;2.50;;
71462;SDS011;59266;52.608;13.260;2022-10-17T16:19:01;14.98;;;2.88;;
71462;SDS011;59266;52.608;13.260;2022-10-17T16:21:30;10.55;;;2.42;;
71462;SDS011;59266;52.608;13.260;2022-10-17T16:23:57;8.02;;;2.60;;
71462;SDS011;59266;52.608;13.260;2022-10-17T16:26:24;7.72;;;2.38;;